Time;durP1;ratioP1;P1;durP2;ratioP2;P2;SDS_P1;SDS_P2;PMS_P1;PMS_P2;Temp;Humidity;BMP_temperature;BMP_pressure;BME280_temperature;BME280_humidity;BME280_pressure;Samples;Min_cycle;Max_cycle;Signal;HPM_P1;HPM_P2
2022/12/19 00:01:17;;;;;;;93.67;24.83;;;-1.30;99.90;;;;;;4973464;28;20599;-73
2022/12/19 00:03:48;;;;;;;95.83;21.63;;;-1.30;99.90;;;;;;4973582;28;20477;-73
2022/12/19 00:06:14;;;;;;;102.87;23.43;;;-1.30;99.90;;;;;;4991644;28;20509;-73
2022/12/19 00:08:42;;;;;;;101.90;23.57;;;-1.30;99.90;;;;;;4990982;28;20480;-73
2022/12/19 00:11:09;;;;;;;97.17;22.00;;;-1.30;99.90;;;;;;4990739;28;20469;-72
2022/12/19 00:13:35;;;;;;;104.10;23.20;;;-1.20;99.90;;;;;;4991434;28;20505;-73
2022/12/19 00:16:06;;;;;;;103.37;22.07;;;-1.20;99.90;;;;;;4991177;28;20536;-72
2022/12/19 00:18:31;;;;;;;114.47;23.07;;;-1.20;99.90;;;;;;4991180;28;20169;-73
2022/12/19 00:20:59;;;;;;;106.17;24.03;;;-1.20;99.90;;;;;;4991178;28;20438;-73
2022/12/19 00:23:26;;;;;;;107.20;22.93;;;-1.20;99.90;;;;;;4990525;28;20222;-72
2022/12/19 00:25:52;;;;;;;109.60;22.23;;;-1.20;99.90;;;;;;4992005;28;20397;-73
2022/12/19 00:28:18;;;;;;;108.10;22.40;;;-1.30;99.90;;;;;;4973828;28;20429;-73
2022/12/19 00:30:44;;;;;;;100.67;21.17;;;-1.20;99.90;;;;;;4993359;28;20214;-74
2022/12/19 00:33:09;;;;;;;108.37;23.67;;;-1.20;99.90;;;;;;4994526;28;20202;-71
2022/12/19 00:35:35;;;;;;;104.07;21.27;;;-1.20;99.90;;;;;;4995061;28;20602;-75
2022/12/19 00:38:01;;;;;;;100.40;23.00;;;-1.20;99.90;;;;;;4995289;28;20184;-74
2022/12/19 00:40:27;;;;;;;104.17;22.53;;;-1.20;99.90;;;;;;4995001;28;20652;-74
2022/12/19 00:42:53;;;;;;;113.00;23.43;;;-1.10;99.90;;;;;;4995100;28;20396;-74
2022/12/19 00:45:18;;;;;;;112.73;25.20;;;-1.10;99.90;;;;;;4977207;28;20727;-74
2022/12/19 00:47:44;;;;;;;109.43;24.43;;;-1.10;99.90;;;;;;4995036;28;20191;-74
2022/12/19 00:50:09;;;;;;;105.23;23.27;;;-1.10;99.90;;;;;;4995015;28;20538;-74
2022/12/19 00:52:35;;;;;;;97.33;22.53;;;-1.00;99.90;;;;;;4994697;28;20235;-74
2022/12/19 00:55:01;;;;;;;86.57;23.83;;;-1.00;99.90;;;;;;4994850;28;20183;-74
2022/12/19 00:57:26;;;;;;;98.97;22.70;;;-1.00;99.90;;;;;;4994542;28;20179;-74
2022/12/19 00:59:52;;;;;;;95.00;22.00;;;-1.00;99.90;;;;;;4994882;28;20543;-74
2022/12/19 01:02:17;;;;;;;104.13;25.23;;;-1.00;99.90;;;;;;4994291;28;20198;-74
2022/12/19 01:04:43;;;;;;;109.67;23.90;;;-1.00;99.90;;;;;;4994831;28;20192;-74
2022/12/19 01:07:09;;;;;;;104.27;22.10;;;-0.90;99.90;;;;;;4994344;28;20167;-75
2022/12/19 01:09:36;;;;;;;105.90;23.30;;;-0.90;99.90;;;;;;4995065;28;20168;-74
2022/12/19 01:14:47;;;;;;;103.87;23.03;;;-0.90;99.90;;;;;;4995034;28;20483;-74
2022/12/19 01:17:13;;;;;;;115.93;23.20;;;-0.90;99.90;;;;;;4994122;28;20978;-73
2022/12/19 01:19:39;;;;;;;106.80;22.10;;;-0.90;99.90;;;;;;4994487;28;20178;-74
2022/12/19 01:22:04;;;;;;;107.30;24.00;;;-0.90;99.90;;;;;;4993691;28;20668;-74
2022/12/19 01:24:30;;;;;;;111.13;24.73;;;-0.90;99.90;;;;;;4994479;28;20606;-74
2022/12/19 01:26:56;;;;;;;115.60;25.37;;;-0.80;99.90;;;;;;4994702;28;20184;-74
2022/12/19 01:29:21;;;;;;;114.53;26.27;;;-0.80;99.90;;;;;;4993882;28;20232;-74
2022/12/19 01:31:47;;;;;;;106.27;22.73;;;-0.80;99.90;;;;;;4993660;28;20215;-72
2022/12/19 01:34:12;;;;;;;108.30;23.10;;;-0.80;99.90;;;;;;4976298;28;20762;-74
2022/12/19 01:36:38;;;;;;;114.67;25.90;;;-0.80;99.90;;;;;;4976642;28;20211;-73
2022/12/19 01:39:04;;;;;;;107.10;22.93;;;-0.80;99.90;;;;;;4993822;28;20251;-74
2022/12/19 01:41:29;;;;;;;110.40;24.33;;;-0.70;99.90;;;;;;4976482;28;20676;-74
2022/12/19 01:44:04;;;;;;;109.40;25.20;;;-0.70;99.90;;;;;;4993879;28;20208;-74
2022/12/19 01:46:51;;;;;;;107.43;25.40;;;-0.70;99.90;;;;;;4993832;28;20190;-74
2022/12/19 01:49:32;;;;;;;113.50;25.00;;;-0.70;99.90;;;;;;4993701;28;20784;-74
2022/12/19 01:52:05;;;;;;;113.03;24.90;;;-0.70;99.90;;;;;;4993766;28;20928;-74
2022/12/19 01:54:34;;;;;;;117.47;24.40;;;-0.80;99.90;;;;;;4993638;28;20472;-74
2022/12/19 01:57:03;;;;;;;115.80;25.00;;;-0.80;99.90;;;;;;4993833;28;20492;-74
2022/12/19 01:59:37;;;;;;;117.30;23.53;;;-0.70;99.90;;;;;;4993677;28;20392;-72
2022/12/19 03:32:43;;;;;;;123.20;27.40;;;0.10;99.90;;;;;;5178521;23;20502;-72
2022/12/19 03:35:16;;;;;;;124.90;27.10;;;0.00;99.90;;;;;;5000066;28;20400;-73
2022/12/19 03:37:43;;;;;;;120.93;28.73;;;0.00;99.90;;;;;;4992667;28;20419;-74
2022/12/19 03:40:17;;;;;;;107.93;26.70;;;0.00;99.90;;;;;;4992763;28;20411;-74
2022/12/19 03:45:38;;;;;;;113.10;26.03;;;-0.10;99.90;;;;;;4992809;28;20373;-74
2022/12/19 03:48:09;;;;;;;116.20;27.33;;;0.00;99.90;;;;;;5003397;28;20806;-74
2022/12/19 03:51:03;;;;;;;109.73;24.70;;;0.00;99.90;;;;;;5011896;28;20780;-72
2022/12/19 03:53:40;;;;;;;119.63;25.80;;;0.10;99.90;;;;;;4975982;28;20442;-74
2022/12/19 03:56:23;;;;;;;117.10;25.60;;;0.10;99.90;;;;;;5012241;28;20434;-74
2022/12/19 03:58:59;;;;;;;108.10;24.60;;;0.20;99.90;;;;;;5012548;28;20416;-74
2022/12/19 04:01:26;;;;;;;117.73;25.77;;;0.20;99.90;;;;;;5011674;28;20497;-73
2022/12/19 04:03:53;;;;;;;114.57;24.93;;;0.30;99.90;;;;;;5011573;28;20395;-74
2022/12/19 04:06:18;;;;;;;114.67;25.17;;;0.30;99.90;;;;;;5011416;28;20392;-72
2022/12/19 04:08:45;;;;;;;98.30;23.20;;;0.30;99.90;;;;;;4994496;28;20428;-75
2022/12/19 04:11:18;;;;;;;109.43;24.40;;;0.30;99.90;;;;;;5011474;28;20272;-73
2022/12/19 04:13:51;;;;;;;103.07;26.27;;;0.40;99.90;;;;;;5012079;28;20589;-74
2022/12/19 04:16:28;;;;;;;112.77;24.80;;;0.40;99.90;;;;;;5011724;28;20458;-73
2022/12/19 04:19:10;;;;;;;110.43;25.23;;;0.50;99.90;;;;;;5012102;28;20458;-74
2022/12/19 04:21:42;;;;;;;116.73;24.33;;;0.50;99.90;;;;;;5014167;28;20430;-74
2022/12/19 04:24:20;;;;;;;113.60;25.57;;;0.50;99.90;;;;;;5014156;28;20913;-74
2022/12/19 04:26:48;;;;;;;112.40;24.83;;;0.50;99.90;;;;;;5011756;28;20757;-75
2022/12/19 04:29:15;;;;;;;116.67;24.37;;;0.50;99.90;;;;;;5011697;28;20403;-74
2022/12/19 04:31:42;;;;;;;113.87;25.50;;;0.50;99.90;;;;;;5011301;28;20826;-75
2022/12/19 04:34:07;;;;;;;108.03;25.30;;;0.50;99.90;;;;;;5011915;28;20494;-74
2022/12/19 04:36:33;;;;;;;123.47;25.90;;;0.50;99.90;;;;;;5011381;28;20542;-74
2022/12/19 04:38:59;;;;;;;110.70;23.80;;;0.50;99.90;;;;;;5011481;28;20171;-74
2022/12/19 04:41:24;;;;;;;108.57;25.00;;;0.60;99.90;;;;;;5011119;28;20273;-75
2022/12/19 04:43:50;;;;;;;107.13;23.87;;;0.60;99.90;;;;;;5011559;28;20654;-73
2022/12/19 04:46:15;;;;;;;124.27;26.80;;;0.60;99.90;;;;;;5011659;28;20222;-75
2022/12/19 04:48:41;;;;;;;97.00;25.17;;;0.60;99.90;;;;;;5011293;28;20642;-75
2022/12/19 04:51:06;;;;;;;109.60;25.33;;;0.60;99.90;;;;;;5011253;28;20283;-72
2022/12/19 04:53:32;;;;;;;104.27;25.03;;;0.60;99.90;;;;;;5011238;28;20181;-74
2022/12/19 04:56:05;;;;;;;108.83;24.13;;;0.70;99.90;;;;;;5011444;28;20239;-74
2022/12/19 04:58:32;;;;;;;112.87;23.50;;;0.70;99.90;;;;;;5011168;28;20187;-74
2022/12/19 05:01:05;;;;;;;106.57;23.93;;;0.70;99.90;;;;;;5011389;28;20424;-74
2022/12/19 05:03:31;;;;;;;111.33;22.87;;;0.70;99.90;;;;;;5011237;28;20392;-74
2022/12/19 05:06:11;;;;;;;111.13;23.57;;;0.80;99.90;;;;;;5011542;28;20772;-74
2022/12/19 05:08:38;;;;;;;107.40;22.33;;;0.80;99.90;;;;;;5012016;28;20483;-75
2022/12/19 05:11:05;;;;;;;104.30;23.87;;;0.70;99.90;;;;;;5012259;28;20415;-73
2022/12/19 05:13:31;;;;;;;112.03;23.70;;;0.70;99.90;;;;;;5012279;28;20425;-76
2022/12/19 05:15:59;;;;;;;110.00;23.60;;;0.80;99.90;;;;;;5013253;28;20430;-75
2022/12/19 05:18:25;;;;;;;109.30;24.63;;;0.80;99.90;;;;;;5015592;28;20440;-74
2022/12/19 05:20:51;;;;;;;109.50;22.13;;;0.80;99.90;;;;;;5015930;28;20434;-72
2022/12/19 05:23:17;;;;;;;110.97;22.23;;;0.80;99.90;;;;;;5015512;28;20447;-75
2022/12/19 05:25:43;;;;;;;110.77;22.90;;;0.90;99.90;;;;;;5015177;28;20459;-74
2022/12/19 05:28:08;;;;;;;119.20;23.73;;;0.90;99.90;;;;;;5015278;28;20290;-74
2022/12/19 05:30:34;;;;;;;105.23;22.90;;;0.90;99.90;;;;;;5014426;28;20605;-74
2022/12/19 05:33:00;;;;;;;126.47;25.50;;;0.90;99.90;;;;;;5014307;28;20192;-74
2022/12/19 05:35:25;;;;;;;132.03;39.60;;;0.90;99.90;;;;;;5014463;28;20229;-74
2022/12/19 05:37:51;;;;;;;121.23;26.07;;;0.90;99.90;;;;;;5014556;28;20413;-74
2022/12/19 05:40:16;;;;;;;311.70;230.83;;;0.90;99.90;;;;;;5014289;28;20192;-74
2022/12/19 05:42:42;;;;;;;109.07;23.03;;;1.00;99.90;;;;;;5014294;28;20284;-75
2022/12/19 05:45:08;;;;;;;100.33;21.73;;;1.00;99.90;;;;;;5014531;28;20214;-74
2022/12/19 05:47:33;;;;;;;111.33;24.83;;;1.00;99.90;;;;;;4996598;28;20189;-74
2022/12/19 05:49:59;;;;;;;112.00;22.80;;;1.00;99.90;;;;;;5014454;28;20167;-74
2022/12/19 05:52:24;;;;;;;116.60;24.43;;;1.10;99.90;;;;;;5013911;28;20392;-74
2022/12/19 05:54:50;;;;;;;123.33;24.40;;;1.10;99.90;;;;;;5014115;28;20584;-75
2022/12/19 05:57:15;;;;;;;116.63;23.00;;;1.10;99.90;;;;;;4996280;28;20215;-76
2022/12/19 05:59:41;;;;;;;120.90;24.07;;;1.10;99.90;;;;;;5014073;28;20181;-74
2022/12/19 06:02:07;;;;;;;123.03;23.10;;;1.10;99.90;;;;;;5013649;28;20195;-73
2022/12/19 06:04:32;;;;;;;131.00;23.90;;;1.10;99.90;;;;;;5013685;28;20284;-74
2022/12/19 06:06:58;;;;;;;118.93;25.57;;;1.20;99.90;;;;;;5013805;28;20647;-74
2022/12/19 06:09:23;;;;;;;116.67;23.10;;;1.20;99.90;;;;;;5013402;28;20421;-74
2022/12/19 06:11:49;;;;;;;123.07;23.73;;;1.20;99.90;;;;;;5013412;28;20199;-74
2022/12/19 06:14:15;;;;;;;185.63;146.43;;;1.20;99.90;;;;;;5013778;28;20566;-75
2022/12/19 06:16:40;;;;;;;107.33;21.33;;;1.30;99.90;;;;;;5012566;28;20215;-72
2022/12/19 06:19:06;;;;;;;100.40;19.70;;;1.30;99.90;;;;;;5013405;28;20178;-74
2022/12/19 06:21:31;;;;;;;103.00;21.93;;;1.30;99.90;;;;;;5013465;28;20199;-75
2022/12/19 06:23:57;;;;;;;113.43;21.90;;;1.40;99.90;;;;;;5014031;28;20287;-74
2022/12/19 06:26:22;;;;;;;125.63;22.97;;;1.40;99.90;;;;;;5013617;28;20177;-73
2022/12/19 06:28:50;;;;;;;119.53;21.90;;;1.40;99.90;;;;;;5012384;28;20183;-74
2022/12/19 06:31:16;;;;;;;117.83;20.27;;;1.40;99.90;;;;;;5013059;28;20238;-74
2022/12/19 06:33:42;;;;;;;105.77;21.30;;;1.50;99.90;;;;;;5013452;28;20403;-74
2022/12/19 06:36:21;;;;;;;146.40;45.33;;;1.50;99.90;;;;;;5013559;28;20462;-74
2022/12/19 06:38:47;;;;;;;196.17;110.03;;;1.50;99.90;;;;;;5013227;28;20266;-73
2022/12/19 06:43:59;;;;;;;117.37;21.97;;;1.50;99.90;;;;;;5013048;28;20505;-74
2022/12/19 06:46:24;;;;;;;121.10;22.27;;;1.50;99.90;;;;;;5013201;28;20790;-74
2022/12/19 06:48:50;;;;;;;125.50;22.87;;;1.50;99.90;;;;;;5012887;28;20385;-73
2022/12/19 06:51:16;;;;;;;119.47;23.70;;;1.50;99.90;;;;;;4995661;28;20214;-74
2022/12/19 06:53:41;;;;;;;119.83;23.17;;;1.50;99.90;;;;;;4993505;28;20185;-74
2022/12/19 06:56:07;;;;;;;112.77;22.93;;;1.50;99.90;;;;;;4993382;28;20250;-74
2022/12/19 06:58:33;;;;;;;124.57;31.93;;;1.50;99.90;;;;;;4993259;28;20168;-74
2022/12/19 07:01:00;;;;;;;83.57;21.73;;;1.40;99.90;;;;;;4993487;28;20800;-73
2022/12/19 07:03:30;;;;;;;119.47;31.17;;;1.50;99.90;;;;;;4993502;28;20418;-71
2022/12/19 07:05:56;;;;;;;146.07;52.33;;;1.50;99.90;;;;;;4993528;28;20953;-73
2022/12/19 07:08:22;;;;;;;182.63;62.60;;;1.50;99.90;;;;;;4993390;28;20506;-73
2022/12/19 07:10:47;;;;;;;112.93;23.17;;;1.50;99.90;;;;;;4992886;28;20390;-72
2022/12/19 07:13:13;;;;;;;113.57;21.60;;;1.50;99.90;;;;;;4992618;28;20171;-72
2022/12/19 07:15:39;;;;;;;123.73;23.73;;;1.50;99.90;;;;;;4992588;28;20200;-72
2022/12/19 07:18:07;;;;;;;112.23;21.40;;;1.50;99.90;;;;;;4992880;28;20261;-73
2022/12/19 07:20:35;;;;;;;120.20;23.40;;;1.50;99.90;;;;;;4975010;28;20397;-73
2022/12/19 07:23:02;;;;;;;175.17;131.97;;;1.60;99.90;;;;;;4992437;28;20521;-71
2022/12/19 07:25:28;;;;;;;126.40;23.43;;;1.60;99.90;;;;;;4992575;28;20958;-73
2022/12/19 07:27:54;;;;;;;125.43;24.50;;;1.70;99.90;;;;;;4992364;28;20411;-72
2022/12/19 07:30:19;;;;;;;127.00;24.77;;;1.70;99.90;;;;;;4974974;28;20185;-71
2022/12/19 07:32:45;;;;;;;129.23;25.83;;;1.70;99.90;;;;;;4992217;28;20466;-72
2022/12/19 07:35:10;;;;;;;121.63;24.30;;;1.80;99.90;;;;;;4992479;28;20701;-72
2022/12/19 07:37:36;;;;;;;121.73;24.63;;;1.90;99.90;;;;;;4992114;28;20190;-72
2022/12/19 07:40:01;;;;;;;135.87;32.53;;;1.90;99.90;;;;;;4992219;28;20232;-73
2022/12/19 07:42:27;;;;;;;115.33;23.37;;;1.90;99.90;;;;;;4991825;28;20205;-72
2022/12/19 07:44:52;;;;;;;136.77;46.23;;;1.90;99.90;;;;;;4992403;28;20173;-72
2022/12/19 07:47:18;;;;;;;196.50;81.33;;;1.90;99.90;;;;;;4991763;28;20178;-72
2022/12/19 07:49:43;;;;;;;124.83;36.43;;;2.00;99.90;;;;;;4992688;28;20191;-73
2022/12/19 07:52:09;;;;;;;133.33;30.63;;;2.00;99.90;;;;;;4991771;28;20196;-73
2022/12/19 07:54:35;;;;;;;123.73;28.00;;;2.00;99.90;;;;;;4974786;28;20190;-73
2022/12/19 07:57:01;;;;;;;128.60;49.20;;;2.00;99.90;;;;;;4992229;28;20202;-73
2022/12/19 07:59:27;;;;;;;122.87;41.50;;;2.10;99.90;;;;;;4991796;28;20206;-74
2022/12/19 08:01:53;;;;;;;82.07;22.27;;;2.10;99.90;;;;;;4991974;28;20465;-73
2022/12/19 08:04:18;;;;;;;112.80;24.03;;;2.20;99.90;;;;;;4991853;28;20185;-74
2022/12/19 08:06:45;;;;;;;123.80;25.67;;;2.20;99.90;;;;;;4992402;28;20644;-74
2022/12/19 08:09:11;;;;;;;148.03;72.27;;;2.20;99.90;;;;;;4991901;28;20179;-73
2022/12/19 08:11:37;;;;;;;91.07;24.00;;;2.30;99.90;;;;;;4991716;28;20434;-74
2022/12/19 08:14:02;;;;;;;64.17;20.90;;;2.30;99.90;;;;;;4991888;28;20478;-74
2022/12/19 08:16:28;;;;;;;58.90;20.37;;;2.40;99.90;;;;;;4991775;28;20897;-73
2022/12/19 08:18:54;;;;;;;61.90;20.53;;;2.50;99.90;;;;;;4992319;28;20252;-73
2022/12/19 08:21:20;;;;;;;102.03;84.97;;;2.50;99.90;;;;;;4974685;28;20214;-73
2022/12/19 08:23:46;;;;;;;107.30;71.63;;;2.60;99.90;;;;;;4991697;28;20887;-74
2022/12/19 08:26:14;;;;;;;102.13;29.77;;;2.60;99.90;;;;;;4992060;28;20182;-74
2022/12/19 08:28:40;;;;;;;85.60;24.20;;;2.60;99.90;;;;;;4991704;28;20182;-73
2022/12/19 08:31:15;;;;;;;108.83;22.00;;;2.70;99.90;;;;;;4991961;28;20552;-73
2022/12/19 08:33:41;;;;;;;100.50;21.30;;;2.70;99.90;;;;;;4993164;28;20406;-74
2022/12/19 08:36:10;;;;;;;109.50;23.00;;;2.70;99.90;;;;;;4992559;28;20476;-74
2022/12/19 08:38:38;;;;;;;108.13;56.67;;;2.80;99.90;;;;;;4991701;28;20492;-75
2022/12/19 08:41:04;;;;;;;114.07;23.00;;;2.80;99.90;;;;;;4991732;28;20430;-70
2022/12/19 08:43:30;;;;;;;131.53;26.00;;;2.90;99.90;;;;;;4991591;28;20424;-74
2022/12/19 08:45:56;;;;;;;121.97;26.70;;;2.90;99.90;;;;;;4991778;28;20403;-73
2022/12/19 08:48:22;;;;;;;124.37;25.20;;;2.90;99.90;;;;;;4991584;28;20764;-73
2022/12/19 08:50:51;;;;;;;122.00;24.10;;;2.90;99.90;;;;;;4992069;28;20264;-73
2022/12/19 08:53:17;;;;;;;132.73;26.00;;;2.90;99.90;;;;;;4995285;28;20504;-74
2022/12/19 08:55:42;;;;;;;118.63;24.17;;;3.00;99.90;;;;;;4995304;28;20916;-72
2022/12/19 08:58:08;;;;;;;160.50;57.13;;;3.00;99.90;;;;;;4995438;28;20178;-73
2022/12/19 09:00:33;;;;;;;228.10;203.73;;;3.00;99.90;;;;;;4995107;28;20664;-73
2022/12/19 09:02:59;;;;;;;133.40;23.53;;;3.00;99.90;;;;;;4995186;28;20183;-72
2022/12/19 09:05:24;;;;;;;125.57;23.10;;;3.10;99.90;;;;;;4995544;28;20210;-74
2022/12/19 09:07:50;;;;;;;122.47;22.27;;;3.10;99.90;;;;;;4977776;28;20667;-74
2022/12/19 09:10:15;;;;;;;109.33;21.50;;;3.10;99.90;;;;;;4995552;28;20659;-74
2022/12/19 09:12:41;;;;;;;117.90;23.50;;;3.10;99.90;;;;;;4994599;28;20202;-74
2022/12/19 09:15:07;;;;;;;118.33;23.50;;;3.10;99.90;;;;;;4995052;28;20186;-74
2022/12/19 09:17:32;;;;;;;119.67;21.93;;;3.10;99.90;;;;;;4994642;28;20247;-74
2022/12/19 09:19:58;;;;;;;117.63;22.33;;;3.10;99.90;;;;;;4995086;28;20182;-74
2022/12/19 09:22:23;;;;;;;112.10;22.60;;;3.20;99.90;;;;;;4994304;28;20190;-75
2022/12/19 09:24:49;;;;;;;127.70;23.97;;;3.20;99.90;;;;;;4977484;28;20436;-74
2022/12/19 09:27:14;;;;;;;188.90;62.57;;;3.30;99.90;;;;;;4994600;28;20227;-73
2022/12/19 09:29:40;;;;;;;818.67;402.37;;;3.30;99.90;;;;;;4994716;28;20175;-73
2022/12/19 09:32:05;;;;;;;1999.90;999.90;;;3.40;99.90;;;;;;4994416;28;20631;-74
2022/12/19 09:34:31;;;;;;;1999.90;999.90;;;3.50;99.90;;;;;;4994305;28;20179;-74
2022/12/19 09:36:57;;;;;;;1999.90;999.90;;;3.40;99.90;;;;;;4994588;28;20750;-73
2022/12/19 09:39:23;;;;;;;1999.90;999.90;;;3.60;99.90;;;;;;4977100;28;20181;-74
2022/12/19 09:41:57;;;;;;;1999.90;999.90;;;3.70;99.90;;;;;;4994276;28;20526;-74
2022/12/19 09:45:07;;;;;;;1999.90;999.90;;;3.70;99.90;;;;;;4994182;28;20183;-73
2022/12/19 09:47:36;;;;;;;1999.90;999.90;;;3.80;99.90;;;;;;4896126;29;20430;-73
2022/12/19 09:50:05;;;;;;;1999.90;999.90;;;4.00;99.90;;;;;;4975752;28;20546;-74
2022/12/19 09:52:31;;;;;;;1999.90;999.90;;;4.10;99.90;;;;;;4993949;28;20486;-74
2022/12/19 09:55:38;;;;;;;1999.90;999.90;;;4.10;99.90;;;;;;4994196;28;20449;-72
2022/12/19 09:58:36;;;;;;;1999.90;999.90;;;4.20;99.90;;;;;;4994318;28;20201;-74
2022/12/19 10:01:07;;;;;;;1387.83;685.70;;;4.20;99.90;;;;;;4993878;28;20429;-73
2022/12/19 10:03:46;;;;;;;36.73;20.33;;;4.30;99.90;;;;;;4994031;28;20496;-72
2022/12/19 10:06:19;;;;;;;38.20;19.40;;;4.40;99.90;;;;;;4993749;28;20411;-73
2022/12/19 10:08:45;;;;;;;41.13;18.63;;;4.50;99.90;;;;;;4994132;28;20422;-74
2022/12/19 10:11:47;;;;;;;38.00;16.87;;;4.60;99.90;;;;;;4993805;28;20445;-72
2022/12/19 10:14:32;;;;;;;39.07;16.53;;;4.80;99.90;;;;;;4993822;28;20917;-74
2022/12/19 10:17:13;;;;;;;35.83;18.20;;;5.00;99.90;;;;;;4993961;28;20561;-72
2022/12/19 10:19:42;;;;;;;42.97;19.53;;;5.20;99.90;;;;;;4994085;28;20407;-72
2022/12/19 10:22:28;;;;;;;34.17;17.90;;;5.40;99.90;;;;;;4991453;28;20460;-75
2022/12/19 10:25:08;;;;;;;45.00;21.80;;;5.50;99.90;;;;;;4993786;28;20853;-75
2022/12/19 10:27:37;;;;;;;49.33;24.00;;;5.60;99.90;;;;;;4993816;28;20796;-72
2022/12/19 10:30:14;;;;;;;50.07;28.10;;;5.60;99.90;;;;;;4993750;28;20478;-75
2022/12/19 10:33:03;;;;;;;41.43;22.40;;;5.60;99.90;;;;;;4992959;28;20550;-74
2022/12/19 10:35:36;;;;;;;31.97;17.23;;;5.70;99.90;;;;;;4993553;28;20418;-74
2022/12/19 10:38:30;;;;;;;32.23;17.10;;;5.70;99.90;;;;;;4993402;28;20441;-75
2022/12/19 10:41:19;;;;;;;28.47;17.90;;;5.70;99.90;;;;;;4993752;28;20461;-75
2022/12/19 10:43:55;;;;;;;33.87;18.90;;;5.80;99.90;;;;;;4993517;28;20411;-74
2022/12/19 10:46:36;;;;;;;37.40;18.93;;;5.80;99.90;;;;;;4993797;28;20407;-74
2022/12/19 10:49:13;;;;;;;41.13;19.23;;;5.80;99.90;;;;;;4993437;28;20419;-73
2022/12/19 10:51:39;;;;;;;37.77;19.30;;;5.90;99.90;;;;;;4975557;28;20476;-73
2022/12/19 10:54:05;;;;;;;34.00;19.63;;;5.90;99.90;;;;;;4993148;28;20518;-74
2022/12/19 10:56:31;;;;;;;32.60;18.33;;;6.00;99.90;;;;;;4993121;28;20599;-71
2022/12/19 10:58:57;;;;;;;32.00;19.30;;;6.00;99.90;;;;;;4993162;28;20637;-73
2022/12/19 11:01:33;;;;;;;31.77;16.47;;;6.10;99.90;;;;;;4992779;28;20519;-74
2022/12/19 11:04:16;;;;;;;40.07;19.17;;;6.10;99.90;;;;;;4993186;28;20913;-73
2022/12/19 11:07:01;;;;;;;34.23;18.40;;;6.10;99.90;;;;;;4993080;28;20454;-74
2022/12/19 11:09:38;;;;;;;33.60;17.73;;;6.20;99.90;;;;;;4992811;28;20459;-73
2022/12/19 11:12:06;;;;;;;33.60;17.37;;;6.20;99.90;;;;;;4992573;28;20428;-74
2022/12/19 11:14:35;;;;;;;29.33;16.10;;;6.30;99.90;;;;;;4992462;28;20429;-74
2022/12/19 11:17:01;;;;;;;33.20;17.00;;;6.30;99.90;;;;;;4992938;28;20530;-72
2022/12/19 11:19:32;;;;;;;34.07;18.43;;;6.40;99.90;;;;;;4992762;28;20840;-74
2022/12/19 11:22:03;;;;;;;26.63;16.13;;;6.40;99.90;;;;;;4992509;28;20444;-74
2022/12/19 11:24:38;;;;;;;30.73;16.87;;;6.40;99.90;;;;;;4992869;28;20420;-75
2022/12/19 11:27:31;;;;;;;33.20;18.03;;;6.50;99.90;;;;;;4993332;28;20961;-75
2022/12/19 11:29:59;;;;;;;34.40;16.83;;;6.40;99.90;;;;;;4993119;28;20500;-76
2022/12/19 11:32:31;;;;;;;33.00;16.80;;;6.60;99.90;;;;;;4992286;28;20861;-75
2022/12/19 11:35:22;;;;;;;34.60;15.80;;;6.70;99.90;;;;;;5007085;28;20420;-75
2022/12/19 11:37:54;;;;;;;27.70;16.77;;;6.80;99.90;;;;;;5011745;28;20487;-75
2022/12/19 11:40:40;;;;;;;26.43;16.10;;;7.00;99.90;;;;;;5010377;28;20407;-76
2022/12/19 11:43:17;;;;;;;24.43;15.47;;;7.10;99.90;;;;;;4991974;28;20410;-75
2022/12/19 11:46:24;;;;;;;36.33;17.33;;;7.00;99.90;;;;;;4992279;28;20412;-75
2022/12/19 11:49:12;;;;;;;31.93;18.50;;;7.00;99.90;;;;;;4992433;28;20436;-75
2022/12/19 11:52:02;;;;;;;28.67;17.17;;;7.00;99.90;;;;;;4992026;28;20496;-73
2022/12/19 11:54:46;;;;;;;39.00;19.50;;;7.00;99.90;;;;;;4992018;28;20937;-73
2022/12/19 11:57:12;;;;;;;30.73;16.03;;;7.10;99.90;;;;;;4992754;28;20466;-73
2022/12/19 11:59:39;;;;;;;25.73;16.20;;;7.10;99.90;;;;;;4992128;28;20428;-71
2022/12/19 12:02:37;;;;;;;29.87;15.90;;;7.20;99.90;;;;;;4992255;28;20761;-74
2022/12/19 12:05:24;;;;;;;29.40;17.00;;;7.20;99.90;;;;;;4992168;28;20543;-74
2022/12/19 12:08:15;;;;;;;33.90;20.90;;;7.30;99.90;;;;;;4992454;28;20567;-75
2022/12/19 12:10:52;;;;;;;38.17;18.03;;;7.20;99.90;;;;;;4992210;28;20477;-75
2022/12/19 12:13:40;;;;;;;34.40;18.50;;;7.20;99.90;;;;;;4991993;28;20425;-74
2022/12/19 12:16:13;;;;;;;30.63;18.97;;;7.00;99.90;;;;;;4992260;28;20771;-74
2022/12/19 12:19:03;;;;;;;31.23;19.57;;;6.90;99.90;;;;;;4992152;28;20977;-75
2022/12/19 12:22:08;;;;;;;27.53;17.50;;;6.90;99.90;;;;;;4991762;28;20479;-75
2022/12/19 12:24:47;;;;;;;21.93;15.27;;;7.00;99.90;;;;;;4991718;28;20420;-74
2022/12/19 12:27:43;;;;;;;31.50;17.20;;;7.10;99.90;;;;;;4995377;28;20983;-74
2022/12/19 12:30:20;;;;;;;31.23;17.50;;;7.20;99.90;;;;;;4995760;28;20409;-73
2022/12/19 12:32:52;;;;;;;33.60;18.07;;;7.20;99.90;;;;;;4995711;28;20495;-74
2022/12/19 12:35:32;;;;;;;33.70;18.53;;;7.30;99.90;;;;;;4995694;28;20413;-74
2022/12/19 12:38:19;;;;;;;27.43;17.50;;;7.20;99.90;;;;;;4996146;28;20456;-76
2022/12/19 12:41:14;;;;;;;30.80;18.43;;;7.10;99.90;;;;;;4995906;28;20553;-73
2022/12/19 12:43:54;;;;;;;29.33;16.90;;;7.00;99.90;;;;;;4995692;28;20408;-73
2022/12/19 12:46:27;;;;;;;28.50;17.37;;;7.00;99.90;;;;;;4995391;28;20418;-74
2022/12/19 12:49:05;;;;;;;40.23;18.90;;;7.00;99.90;;;;;;4978193;28;20442;-74
2022/12/19 12:51:32;;;;;;;35.57;19.40;;;7.00;99.90;;;;;;4995263;28;20532;-73
2022/12/19 12:54:06;;;;;;;31.10;19.30;;;7.00;99.90;;;;;;4996491;28;20420;-73
2022/12/19 12:56:33;;;;;;;31.23;18.30;;;7.00;99.90;;;;;;5010504;28;20838;-73
2022/12/19 12:58:59;;;;;;;30.27;18.67;;;7.00;99.90;;;;;;4995312;28;20415;-73
2022/12/19 13:01:27;;;;;;;33.10;20.63;;;7.00;99.90;;;;;;4994993;28;20849;-73
2022/12/19 13:04:00;;;;;;;32.77;20.03;;;6.90;99.90;;;;;;4995139;28;20189;-74
2022/12/19 13:06:30;;;;;;;36.50;20.40;;;6.90;99.90;;;;;;4995176;28;20502;-72
2022/12/19 13:09:07;;;;;;;40.27;19.50;;;6.80;99.90;;;;;;4977808;28;20415;-74
2022/12/19 13:14:33;;;;;;;44.03;20.87;;;6.80;99.90;;;;;;4995044;28;20425;-74
2022/12/19 13:17:00;;;;;;;33.30;20.30;;;6.80;99.90;;;;;;4995271;28;20513;-74
2022/12/19 13:19:28;;;;;;;32.60;19.80;;;6.80;99.90;;;;;;4995101;28;20833;-72
2022/12/19 13:22:02;;;;;;;37.23;21.67;;;6.80;99.90;;;;;;4995025;28;20429;-73
2022/12/19 13:24:40;;;;;;;36.30;18.73;;;6.90;99.90;;;;;;4995046;28;20403;-74
2022/12/19 13:27:18;;;;;;;31.50;18.33;;;6.90;99.90;;;;;;5010050;28;20419;-72
2022/12/19 13:30:11;;;;;;;31.17;16.67;;;6.90;99.90;;;;;;4994768;28;20455;-72
2022/12/19 13:32:39;;;;;;;32.10;17.80;;;6.90;99.90;;;;;;4994538;28;20484;-72
2022/12/19 13:35:27;;;;;;;23.07;13.53;;;6.90;99.90;;;;;;4994532;28;20912;-75
2022/12/19 13:38:21;;;;;;;31.53;17.70;;;7.00;99.90;;;;;;4994430;28;20444;-75
2022/12/19 13:40:53;;;;;;;27.83;16.30;;;7.00;99.90;;;;;;4995093;28;20410;-74
2022/12/19 13:46:37;;;;;;;33.93;18.97;;;7.00;99.90;;;;;;4995096;28;20411;-74
2022/12/19 13:49:30;;;;;;;33.27;19.07;;;6.90;99.90;;;;;;4994648;28;20409;-74
2022/12/19 13:51:57;;;;;;;34.10;19.37;;;6.80;99.90;;;;;;4988435;28;20433;-74
2022/12/19 13:54:45;;;;;;;27.33;17.10;;;6.70;99.90;;;;;;5010489;28;20409;-73
2022/12/19 13:57:29;;;;;;;28.23;16.20;;;6.70;99.90;;;;;;5018183;28;20465;-74
2022/12/19 13:59:59;;;;;;;32.53;16.70;;;6.60;99.90;;;;;;5034038;28;20802;-74
2022/12/19 14:02:32;;;;;;;21.03;13.40;;;6.60;99.90;;;;;;5033297;28;20429;-73
2022/12/19 14:04:59;;;;;;;20.13;13.13;;;6.60;99.90;;;;;;5033957;28;20416;-72
2022/12/19 14:07:39;;;;;;;20.23;13.00;;;6.60;99.90;;;;;;5033361;28;20449;-73
2022/12/19 14:10:16;;;;;;;18.37;12.37;;;6.50;99.90;;;;;;5033499;28;20916;-73
2022/12/19 14:15:35;;;;;;;12.23;6.20;;;6.60;99.90;;;;;;5033305;28;20508;-73
2022/12/19 14:18:22;;;;;;;13.90;6.37;;;6.80;99.90;;;;;;5033282;28;20446;-73
2022/12/19 14:20:50;;;;;;;13.57;5.70;;;7.00;99.90;;;;;;5033291;28;20409;-73
2022/12/19 14:23:16;;;;;;;10.30;6.17;;;7.20;99.90;;;;;;5032744;28;20405;-73
2022/12/19 14:25:44;;;;;;;11.40;5.90;;;7.30;99.90;;;;;;5033208;28;20426;-73
2022/12/19 14:28:18;;;;;;;12.07;8.00;;;7.40;99.90;;;;;;5033279;28;20490;-73
2022/12/19 14:30:48;;;;;;;12.27;6.20;;;7.40;99.90;;;;;;5033068;28;20420;-73
2022/12/19 14:33:21;;;;;;;9.83;6.70;;;7.40;99.90;;;;;;5014968;28;20419;-73
2022/12/19 14:35:50;;;;;;;10.43;6.40;;;7.30;99.90;;;;;;5033243;28;20826;-73